Accueil
METAR-TAF:

METAR-TAF

Aéroports :

Nouakchott, Mauritanie

Aéroport international de Nouakchott-Oumtounsy

latitude: 18-18-36N, longitude: 015-58-11W, altitude: 3 m

Observation

Le bulletin a été fait il y a 37 minutes, à 18:30 UTC
Vent 17 kt de nord-ouest
Température 23°C
Humidité 65%
Pression 1010 hPa
Visibilité: 8000 m

METAR: GQNO 241830Z 32017KT 8000 NSC 23/16 Q1010 NOSIG

Heure: 19:07 (19:07 UTC)

Prévision

Le bulletin a été fait il y a 2 heures et 7 minutes, à 17:00 UTC
Prévision valable du 24 à 18 UTC au 25 à 24 UTC
Vent 12 kt de nord-ouest
Visibilité: 7000 m

TAF: GQNO 241700Z 2418/2524 32012KT 7000 NSC

Observations et prévisions météorologiques de plus de 4000 aéroports (messages METAR et TAF).

Les stations disponibles sont représentées par des disques jaunes et rouges sur la carte.

Passer la souris dessus pour voir le nom de la station.

Cliquer dessus pour voir les observations et prévisions météorologiques.

Pour changer de carte: cliquez sur les boutons verts avec une croix noire pour zoomer, sur le bouton vert avec un tiret pour effectuer un zoom arrière, ou sur les flèches vertes pour les cartes adjacentes.


METAR-TAF: